Terminal Aerodrome Forecast
Issued by NWS

Current Version | Previous Version | Text Only | Print | Product List | Glossary On
Versions: 1 2 3 4 5 6 7 8 9 10 11 12 13 14 15 16 17 18 19 20 21 22 23 24 25 26 27 28 29 30 31 32 33 34
000
FTUS41 KPBZ 222000 AAA
TAFDUJ
TAF AMD
KDUJ 222006Z 2220/2318 24005KT P6SM VCSH SCT025 BKN080
     FM222300 VRB03KT P6SM BKN035
     FM230400 VRB03KT 5SM BR SCT035
     FM230700 VRB03KT 1SM BR SCT005
     FM231400 07005KT 6SM HZ BKN015
     FM231700 08005KT P6SM BKN040=

USA.gov is the U.S. government's official web portal to all federal, state and local government web resources and services.